sensor_id;sensor_type;location;lat;lon;timestamp;P1;durP1;ratioP1;P2;durP2;ratioP2
11054;SDS011;5580;50.106;8.702;2023-11-19T00:02:07;14.17;;;8.17;;
11054;SDS011;5580;50.106;8.702;2023-11-19T00:04:33;12.80;;;8.17;;
11054;SDS011;5580;50.106;8.702;2023-11-19T00:07:02;13.30;;;8.03;;
11054;SDS011;5580;50.106;8.702;2023-11-19T00:09:30;11.77;;;7.87;;
11054;SDS011;5580;50.106;8.702;2023-11-19T00:11:56;13.40;;;7.97;;
11054;SDS011;5580;50.106;8.702;2023-11-19T00:14:22;13.00;;;8.00;;
11054;SDS011;5580;50.106;8.702;2023-11-19T00:16:49;14.53;;;8.47;;
11054;SDS011;5580;50.106;8.702;2023-11-19T00:19:16;11.87;;;7.83;;
11054;SDS011;5580;50.106;8.702;2023-11-19T00:21:41;13.73;;;8.80;;
11054;SDS011;5580;50.106;8.702;2023-11-19T00:24:07;13.33;;;8.33;;
11054;SDS011;5580;50.106;8.702;2023-11-19T00:26:33;13.77;;;8.47;;
11054;SDS011;5580;50.106;8.702;2023-11-19T00:28:59;16.40;;;8.40;;
11054;SDS011;5580;50.106;8.702;2023-11-19T00:31:25;13.47;;;8.47;;
11054;SDS011;5580;50.106;8.702;2023-11-19T00:33:52;13.27;;;8.80;;
11054;SDS011;5580;50.106;8.702;2023-11-19T00:36:18;14.03;;;8.90;;
11054;SDS011;5580;50.106;8.702;2023-11-19T00:38:44;15.20;;;9.47;;
11054;SDS011;5580;50.106;8.702;2023-11-19T00:41:09;15.03;;;9.33;;
11054;SDS011;5580;50.106;8.702;2023-11-19T00:43:35;14.43;;;8.87;;
11054;SDS011;5580;50.106;8.702;2023-11-19T00:46:01;14.80;;;9.80;;
11054;SDS011;5580;50.106;8.702;2023-11-19T00:48:29;14.20;;;9.13;;
11054;SDS011;5580;50.106;8.702;2023-11-19T00:50:54;14.33;;;9.40;;
11054;SDS011;5580;50.106;8.702;2023-11-19T00:53:20;14.50;;;9.27;;
11054;SDS011;5580;50.106;8.702;2023-11-19T00:55:45;13.03;;;8.90;;
11054;SDS011;5580;50.106;8.702;2023-11-19T00:58:11;14.13;;;9.10;;
11054;SDS011;5580;50.106;8.702;2023-11-19T01:00:36;15.00;;;9.53;;
11054;SDS011;5580;50.106;8.702;2023-11-19T01:03:02;15.83;;;9.30;;
11054;SDS011;5580;50.106;8.702;2023-11-19T01:05:27;15.20;;;9.13;;
11054;SDS011;5580;50.106;8.702;2023-11-19T01:07:53;14.07;;;8.43;;
11054;SDS011;5580;50.106;8.702;2023-11-19T01:10:19;13.83;;;8.40;;
11054;SDS011;5580;50.106;8.702;2023-11-19T01:12:45;12.77;;;8.23;;
11054;SDS011;5580;50.106;8.702;2023-11-19T01:15:11;13.10;;;7.97;;
11054;SDS011;5580;50.106;8.702;2023-11-19T01:17:38;13.97;;;8.70;;
11054;SDS011;5580;50.106;8.702;2023-11-19T01:20:03;12.73;;;8.20;;
11054;SDS011;5580;50.106;8.702;2023-11-19T01:22:31;12.23;;;8.33;;
11054;SDS011;5580;50.106;8.702;2023-11-19T01:24:57;13.80;;;8.13;;
11054;SDS011;5580;50.106;8.702;2023-11-19T01:27:23;13.13;;;8.30;;
11054;SDS011;5580;50.106;8.702;2023-11-19T01:29:49;13.93;;;8.10;;
11054;SDS011;5580;50.106;8.702;2023-11-19T01:32:15;12.83;;;7.83;;
11054;SDS011;5580;50.106;8.702;2023-11-19T01:34:40;12.60;;;8.10;;
11054;SDS011;5580;50.106;8.702;2023-11-19T01:37:06;11.63;;;7.83;;
11054;SDS011;5580;50.106;8.702;2023-11-19T01:39:34;11.90;;;8.07;;
11054;SDS011;5580;50.106;8.702;2023-11-19T01:41:59;11.50;;;7.90;;
11054;SDS011;5580;50.106;8.702;2023-11-19T01:44:25;13.30;;;7.87;;
11054;SDS011;5580;50.106;8.702;2023-11-19T01:46:50;13.80;;;7.90;;
11054;SDS011;5580;50.106;8.702;2023-11-19T01:49:17;12.93;;;7.90;;
11054;SDS011;5580;50.106;8.702;2023-11-19T01:51:43;11.93;;;7.57;;
11054;SDS011;5580;50.106;8.702;2023-11-19T01:54:10;12.80;;;7.80;;
11054;SDS011;5580;50.106;8.702;2023-11-19T01:56:37;12.67;;;8.00;;
11054;SDS011;5580;50.106;8.702;2023-11-19T01:59:08;11.33;;;7.10;;
11054;SDS011;5580;50.106;8.702;2023-11-19T02:01:36;10.90;;;7.33;;
11054;SDS011;5580;50.106;8.702;2023-11-19T02:04:04;11.43;;;7.20;;
11054;SDS011;5580;50.106;8.702;2023-11-19T02:06:31;10.80;;;7.07;;
11054;SDS011;5580;50.106;8.702;2023-11-19T02:08:59;10.90;;;6.97;;
11054;SDS011;5580;50.106;8.702;2023-11-19T02:11:25;11.80;;;7.13;;
11054;SDS011;5580;50.106;8.702;2023-11-19T02:13:54;10.17;;;7.00;;
11054;SDS011;5580;50.106;8.702;2023-11-19T02:16:21;11.77;;;6.83;;
11054;SDS011;5580;50.106;8.702;2023-11-19T02:18:46;9.97;;;6.90;;
11054;SDS011;5580;50.106;8.702;2023-11-19T02:21:13;11.03;;;6.60;;
11054;SDS011;5580;50.106;8.702;2023-11-19T02:23:40;10.97;;;7.17;;
11054;SDS011;5580;50.106;8.702;2023-11-19T02:26:22;11.10;;;6.50;;
11054;SDS011;5580;50.106;8.702;2023-11-19T02:29:02;9.80;;;6.43;;
11054;SDS011;5580;50.106;8.702;2023-11-19T02:31:27;10.93;;;6.63;;
11054;SDS011;5580;50.106;8.702;2023-11-19T02:33:53;10.87;;;6.60;;
11054;SDS011;5580;50.106;8.702;2023-11-19T02:36:20;10.37;;;6.70;;
11054;SDS011;5580;50.106;8.702;2023-11-19T02:38:46;9.23;;;6.13;;
11054;SDS011;5580;50.106;8.702;2023-11-19T02:41:12;9.57;;;6.00;;
11054;SDS011;5580;50.106;8.702;2023-11-19T02:43:39;10.23;;;6.13;;
11054;SDS011;5580;50.106;8.702;2023-11-19T02:46:04;10.67;;;6.43;;
11054;SDS011;5580;50.106;8.702;2023-11-19T02:48:34;8.17;;;5.80;;
11054;SDS011;5580;50.106;8.702;2023-11-19T02:51:03;10.17;;;6.50;;
11054;SDS011;5580;50.106;8.702;2023-11-19T02:53:32;9.27;;;6.13;;
11054;SDS011;5580;50.106;8.702;2023-11-19T02:55:58;10.87;;;6.07;;
11054;SDS011;5580;50.106;8.702;2023-11-19T02:58:36;11.00;;;5.90;;
11054;SDS011;5580;50.106;8.702;2023-11-19T03:01:03;8.87;;;6.00;;
11054;SDS011;5580;50.106;8.702;2023-11-19T03:03:37;8.30;;;6.10;;
11054;SDS011;5580;50.106;8.702;2023-11-19T03:06:05;8.47;;;5.60;;
11054;SDS011;5580;50.106;8.702;2023-11-19T03:08:32;8.50;;;5.90;;
11054;SDS011;5580;50.106;8.702;2023-11-19T03:11:00;11.97;;;6.30;;
11054;SDS011;5580;50.106;8.702;2023-11-19T03:13:25;8.93;;;5.50;;
11054;SDS011;5580;50.106;8.702;2023-11-19T03:15:51;6.73;;;5.10;;
11054;SDS011;5580;50.106;8.702;2023-11-19T03:18:18;8.50;;;5.70;;
11054;SDS011;5580;50.106;8.702;2023-11-19T03:20:45;7.97;;;5.33;;
11054;SDS011;5580;50.106;8.702;2023-11-19T03:23:11;8.50;;;5.60;;
11054;SDS011;5580;50.106;8.702;2023-11-19T03:25:37;8.43;;;5.37;;
11054;SDS011;5580;50.106;8.702;2023-11-19T03:28:03;7.93;;;5.27;;
11054;SDS011;5580;50.106;8.702;2023-11-19T03:30:29;7.77;;;5.33;;
11054;SDS011;5580;50.106;8.702;2023-11-19T03:32:56;7.90;;;5.73;;
11054;SDS011;5580;50.106;8.702;2023-11-19T03:35:22;8.63;;;5.30;;
11054;SDS011;5580;50.106;8.702;2023-11-19T03:37:49;8.33;;;5.70;;
11054;SDS011;5580;50.106;8.702;2023-11-19T03:40:16;8.63;;;5.87;;
11054;SDS011;5580;50.106;8.702;2023-11-19T03:42:42;7.67;;;5.60;;
11054;SDS011;5580;50.106;8.702;2023-11-19T03:45:08;9.03;;;5.80;;
11054;SDS011;5580;50.106;8.702;2023-11-19T03:47:34;8.37;;;5.80;;
11054;SDS011;5580;50.106;8.702;2023-11-19T03:50:00;7.90;;;5.73;;
11054;SDS011;5580;50.106;8.702;2023-11-19T03:52:26;8.37;;;5.97;;
11054;SDS011;5580;50.106;8.702;2023-11-19T03:54:54;7.97;;;5.73;;
11054;SDS011;5580;50.106;8.702;2023-11-19T03:57:21;8.77;;;5.43;;
11054;SDS011;5580;50.106;8.702;2023-11-19T03:59:47;8.50;;;5.90;;
11054;SDS011;5580;50.106;8.702;2023-11-19T04:02:13;8.50;;;6.00;;
11054;SDS011;5580;50.106;8.702;2023-11-19T04:04:39;7.90;;;5.87;;
11054;SDS011;5580;50.106;8.702;2023-11-19T04:07:04;9.53;;;6.13;;
11054;SDS011;5580;50.106;8.702;2023-11-19T04:09:30;8.43;;;5.93;;
11054;SDS011;5580;50.106;8.702;2023-11-19T04:11:57;7.83;;;5.83;;
11054;SDS011;5580;50.106;8.702;2023-11-19T04:14:23;9.97;;;5.70;;
11054;SDS011;5580;50.106;8.702;2023-11-19T04:16:49;8.47;;;5.30;;
11054;SDS011;5580;50.106;8.702;2023-11-19T04:19:15;8.00;;;5.97;;
11054;SDS011;5580;50.106;8.702;2023-11-19T04:21:42;7.37;;;5.43;;
11054;SDS011;5580;50.106;8.702;2023-11-19T04:24:08;9.97;;;5.50;;
11054;SDS011;5580;50.106;8.702;2023-11-19T04:26:39;7.57;;;5.40;;
11054;SDS011;5580;50.106;8.702;2023-11-19T04:29:07;7.90;;;5.50;;
11054;SDS011;5580;50.106;8.702;2023-11-19T04:31:42;7.87;;;5.63;;
11054;SDS011;5580;50.106;8.702;2023-11-19T04:34:09;7.53;;;5.37;;
11054;SDS011;5580;50.106;8.702;2023-11-19T04:36:36;7.87;;;5.33;;
11054;SDS011;5580;50.106;8.702;2023-11-19T04:39:02;9.17;;;5.60;;
11054;SDS011;5580;50.106;8.702;2023-11-19T04:41:34;6.43;;;4.90;;
11054;SDS011;5580;50.106;8.702;2023-11-19T04:44:01;8.93;;;5.60;;
11054;SDS011;5580;50.106;8.702;2023-11-19T04:46:26;8.23;;;5.13;;
11054;SDS011;5580;50.106;8.702;2023-11-19T04:48:53;6.60;;;4.90;;
11054;SDS011;5580;50.106;8.702;2023-11-19T04:51:19;7.77;;;5.50;;
11054;SDS011;5580;50.106;8.702;2023-11-19T04:53:44;6.87;;;5.20;;
11054;SDS011;5580;50.106;8.702;2023-11-19T04:56:10;7.33;;;5.10;;
11054;SDS011;5580;50.106;8.702;2023-11-19T04:58:37;7.00;;;4.93;;
11054;SDS011;5580;50.106;8.702;2023-11-19T05:01:02;7.60;;;5.77;;
11054;SDS011;5580;50.106;8.702;2023-11-19T05:03:29;7.73;;;5.60;;
11054;SDS011;5580;50.106;8.702;2023-11-19T05:05:58;8.17;;;5.40;;
11054;SDS011;5580;50.106;8.702;2023-11-19T05:08:24;8.53;;;5.83;;
11054;SDS011;5580;50.106;8.702;2023-11-19T05:10:49;9.27;;;6.10;;
11054;SDS011;5580;50.106;8.702;2023-11-19T05:13:15;8.37;;;5.83;;
11054;SDS011;5580;50.106;8.702;2023-11-19T05:15:41;8.00;;;5.60;;
11054;SDS011;5580;50.106;8.702;2023-11-19T05:18:07;8.97;;;6.00;;
11054;SDS011;5580;50.106;8.702;2023-11-19T05:20:33;8.27;;;5.50;;
11054;SDS011;5580;50.106;8.702;2023-11-19T05:22:59;9.63;;;5.80;;
11054;SDS011;5580;50.106;8.702;2023-11-19T05:25:25;8.13;;;5.70;;
11054;SDS011;5580;50.106;8.702;2023-11-19T05:27:51;7.00;;;5.40;;
11054;SDS011;5580;50.106;8.702;2023-11-19T05:30:17;8.17;;;5.53;;
11054;SDS011;5580;50.106;8.702;2023-11-19T05:32:43;7.37;;;5.40;;
11054;SDS011;5580;50.106;8.702;2023-11-19T05:35:09;9.87;;;5.20;;
11054;SDS011;5580;50.106;8.702;2023-11-19T05:37:34;7.07;;;5.17;;
11054;SDS011;5580;50.106;8.702;2023-11-19T05:40:00;8.50;;;5.63;;
11054;SDS011;5580;50.106;8.702;2023-11-19T05:42:28;7.70;;;5.67;;
11054;SDS011;5580;50.106;8.702;2023-11-19T05:44:54;8.77;;;5.80;;
11054;SDS011;5580;50.106;8.702;2023-11-19T05:47:19;8.47;;;6.30;;
11054;SDS011;5580;50.106;8.702;2023-11-19T05:49:45;9.00;;;6.20;;
11054;SDS011;5580;50.106;8.702;2023-11-19T05:52:10;8.40;;;6.00;;
11054;SDS011;5580;50.106;8.702;2023-11-19T05:54:37;9.37;;;6.73;;
11054;SDS011;5580;50.106;8.702;2023-11-19T05:57:06;8.83;;;6.30;;
11054;SDS011;5580;50.106;8.702;2023-11-19T05:59:34;9.67;;;6.90;;
11054;SDS011;5580;50.106;8.702;2023-11-19T06:02:01;9.93;;;6.60;;
11054;SDS011;5580;50.106;8.702;2023-11-19T06:04:27;10.30;;;7.37;;
11054;SDS011;5580;50.106;8.702;2023-11-19T06:06:53;10.73;;;7.00;;
11054;SDS011;5580;50.106;8.702;2023-11-19T06:09:22;9.93;;;7.13;;
11054;SDS011;5580;50.106;8.702;2023-11-19T06:11:50;10.40;;;7.20;;
11054;SDS011;5580;50.106;8.702;2023-11-19T06:14:17;11.40;;;7.30;;
11054;SDS011;5580;50.106;8.702;2023-11-19T06:16:43;10.23;;;7.13;;
11054;SDS011;5580;50.106;8.702;2023-11-19T06:19:09;9.07;;;6.63;;
11054;SDS011;5580;50.106;8.702;2023-11-19T06:21:36;10.83;;;6.37;;
11054;SDS011;5580;50.106;8.702;2023-11-19T06:24:02;10.30;;;6.50;;
11054;SDS011;5580;50.106;8.702;2023-11-19T06:26:28;9.30;;;6.17;;
11054;SDS011;5580;50.106;8.702;2023-11-19T06:28:53;9.03;;;6.37;;
11054;SDS011;5580;50.106;8.702;2023-11-19T06:31:19;7.77;;;5.73;;
11054;SDS011;5580;50.106;8.702;2023-11-19T06:33:45;10.50;;;5.67;;
11054;SDS011;5580;50.106;8.702;2023-11-19T06:36:13;9.13;;;6.00;;
11054;SDS011;5580;50.106;8.702;2023-11-19T06:38:41;10.10;;;5.80;;
11054;SDS011;5580;50.106;8.702;2023-11-19T06:41:07;8.77;;;5.90;;
11054;SDS011;5580;50.106;8.702;2023-11-19T06:43:34;10.07;;;5.90;;
11054;SDS011;5580;50.106;8.702;2023-11-19T06:46:00;10.23;;;5.70;;
11054;SDS011;5580;50.106;8.702;2023-11-19T06:48:26;10.80;;;5.87;;
11054;SDS011;5580;50.106;8.702;2023-11-19T06:50:52;9.17;;;5.63;;
11054;SDS011;5580;50.106;8.702;2023-11-19T06:53:17;8.23;;;5.70;;
11054;SDS011;5580;50.106;8.702;2023-11-19T06:55:43;9.63;;;5.73;;
11054;SDS011;5580;50.106;8.702;2023-11-19T06:58:08;8.73;;;5.90;;
11054;SDS011;5580;50.106;8.702;2023-11-19T07:00:34;10.20;;;6.03;;
11054;SDS011;5580;50.106;8.702;2023-11-19T07:03:01;9.87;;;5.30;;
11054;SDS011;5580;50.106;8.702;2023-11-19T07:05:26;10.73;;;6.00;;
11054;SDS011;5580;50.106;8.702;2023-11-19T07:07:53;9.27;;;5.50;;
11054;SDS011;5580;50.106;8.702;2023-11-19T07:10:19;8.80;;;5.80;;
11054;SDS011;5580;50.106;8.702;2023-11-19T07:12:45;9.87;;;5.67;;
11054;SDS011;5580;50.106;8.702;2023-11-19T07:15:10;8.07;;;5.70;;
11054;SDS011;5580;50.106;8.702;2023-11-19T07:17:38;9.77;;;5.97;;
11054;SDS011;5580;50.106;8.702;2023-11-19T07:20:05;8.93;;;5.60;;
11054;SDS011;5580;50.106;8.702;2023-11-19T07:22:31;8.37;;;5.73;;
11054;SDS011;5580;50.106;8.702;2023-11-19T07:24:56;10.87;;;5.83;;
11054;SDS011;5580;50.106;8.702;2023-11-19T07:27:23;7.90;;;5.87;;
11054;SDS011;5580;50.106;8.702;2023-11-19T07:29:49;8.30;;;5.70;;
11054;SDS011;5580;50.106;8.702;2023-11-19T07:32:15;9.10;;;5.73;;
11054;SDS011;5580;50.106;8.702;2023-11-19T07:34:40;8.83;;;5.83;;
11054;SDS011;5580;50.106;8.702;2023-11-19T07:37:06;9.73;;;5.90;;
11054;SDS011;5580;50.106;8.702;2023-11-19T07:39:32;8.80;;;5.90;;
11054;SDS011;5580;50.106;8.702;2023-11-19T07:41:57;9.60;;;6.40;;
11054;SDS011;5580;50.106;8.702;2023-11-19T07:44:23;8.90;;;6.20;;
11054;SDS011;5580;50.106;8.702;2023-11-19T07:46:49;9.67;;;6.00;;
11054;SDS011;5580;50.106;8.702;2023-11-19T07:49:15;10.43;;;6.23;;
11054;SDS011;5580;50.106;8.702;2023-11-19T07:51:40;9.20;;;6.17;;
11054;SDS011;5580;50.106;8.702;2023-11-19T07:54:06;8.83;;;5.80;;
11054;SDS011;5580;50.106;8.702;2023-11-19T07:56:33;8.17;;;5.80;;
11054;SDS011;5580;50.106;8.702;2023-11-19T07:59:04;9.90;;;6.03;;
11054;SDS011;5580;50.106;8.702;2023-11-19T08:01:30;9.10;;;5.83;;
11054;SDS011;5580;50.106;8.702;2023-11-19T08:03:56;10.37;;;5.47;;
11054;SDS011;5580;50.106;8.702;2023-11-19T08:06:22;10.57;;;5.87;;
11054;SDS011;5580;50.106;8.702;2023-11-19T08:08:47;8.07;;;5.67;;
11054;SDS011;5580;50.106;8.702;2023-11-19T08:11:13;9.60;;;6.03;;
11054;SDS011;5580;50.106;8.702;2023-11-19T08:13:40;9.80;;;6.17;;
11054;SDS011;5580;50.106;8.702;2023-11-19T08:16:05;10.00;;;6.10;;
11054;SDS011;5580;50.106;8.702;2023-11-19T08:18:31;8.77;;;6.33;;
11054;SDS011;5580;50.106;8.702;2023-11-19T08:20:57;9.27;;;6.23;;
11054;SDS011;5580;50.106;8.702;2023-11-19T08:23:24;9.47;;;6.27;;
11054;SDS011;5580;50.106;8.702;2023-11-19T08:25:50;10.10;;;6.27;;
11054;SDS011;5580;50.106;8.702;2023-11-19T08:28:16;9.70;;;6.63;;
11054;SDS011;5580;50.106;8.702;2023-11-19T08:30:41;10.17;;;6.60;;
11054;SDS011;5580;50.106;8.702;2023-11-19T08:33:09;9.10;;;6.30;;
11054;SDS011;5580;50.106;8.702;2023-11-19T08:35:34;10.77;;;6.67;;
11054;SDS011;5580;50.106;8.702;2023-11-19T08:38:00;12.77;;;7.10;;
11054;SDS011;5580;50.106;8.702;2023-11-19T08:40:26;9.93;;;6.87;;
11054;SDS011;5580;50.106;8.702;2023-11-19T08:42:52;9.63;;;6.47;;
11054;SDS011;5580;50.106;8.702;2023-11-19T08:45:18;11.07;;;6.63;;
11054;SDS011;5580;50.106;8.702;2023-11-19T08:47:43;10.03;;;6.47;;
11054;SDS011;5580;50.106;8.702;2023-11-19T08:50:10;11.00;;;6.90;;
11054;SDS011;5580;50.106;8.702;2023-11-19T08:52:36;9.77;;;6.60;;
11054;SDS011;5580;50.106;8.702;2023-11-19T08:55:02;11.43;;;6.63;;
11054;SDS011;5580;50.106;8.702;2023-11-19T08:57:28;10.17;;;6.70;;
11054;SDS011;5580;50.106;8.702;2023-11-19T08:59:53;9.83;;;6.50;;
11054;SDS011;5580;50.106;8.702;2023-11-19T09:02:19;10.00;;;6.70;;
11054;SDS011;5580;50.106;8.702;2023-11-19T09:04:44;11.00;;;6.67;;
11054;SDS011;5580;50.106;8.702;2023-11-19T09:07:10;10.80;;;6.83;;
11054;SDS011;5580;50.106;8.702;2023-11-19T09:09:36;9.23;;;6.70;;
11054;SDS011;5580;50.106;8.702;2023-11-19T09:12:02;10.87;;;6.50;;
11054;SDS011;5580;50.106;8.702;2023-11-19T09:14:28;9.97;;;7.00;;
11054;SDS011;5580;50.106;8.702;2023-11-19T09:16:55;10.07;;;7.00;;
11054;SDS011;5580;50.106;8.702;2023-11-19T09:19:21;13.73;;;6.93;;
11054;SDS011;5580;50.106;8.702;2023-11-19T09:21:46;9.77;;;6.87;;
11054;SDS011;5580;50.106;8.702;2023-11-19T09:24:13;10.03;;;6.90;;
11054;SDS011;5580;50.106;8.702;2023-11-19T09:26:38;10.27;;;6.77;;
11054;SDS011;5580;50.106;8.702;2023-11-19T09:29:06;12.93;;;6.77;;
11054;SDS011;5580;50.106;8.702;2023-11-19T09:31:34;12.17;;;6.80;;
11054;SDS011;5580;50.106;8.702;2023-11-19T09:34:02;9.53;;;6.37;;
11054;SDS011;5580;50.106;8.702;2023-11-19T09:36:28;7.87;;;5.70;;
11054;SDS011;5580;50.106;8.702;2023-11-19T09:38:53;9.03;;;6.00;;
11054;SDS011;5580;50.106;8.702;2023-11-19T09:41:19;9.87;;;5.60;;
11054;SDS011;5580;50.106;8.702;2023-11-19T09:43:45;10.13;;;5.30;;
11054;SDS011;5580;50.106;8.702;2023-11-19T09:46:11;9.97;;;5.07;;
11054;SDS011;5580;50.106;8.702;2023-11-19T09:48:39;7.03;;;4.80;;
11054;SDS011;5580;50.106;8.702;2023-11-19T09:51:08;10.37;;;5.10;;
11054;SDS011;5580;50.106;8.702;2023-11-19T09:53:34;6.67;;;4.57;;
11054;SDS011;5580;50.106;8.702;2023-11-19T09:56:01;7.63;;;4.50;;
11054;SDS011;5580;50.106;8.702;2023-11-19T09:58:28;9.23;;;4.57;;
11054;SDS011;5580;50.106;8.702;2023-11-19T10:00:55;7.80;;;4.20;;
11054;SDS011;5580;50.106;8.702;2023-11-19T10:03:24;7.67;;;4.23;;
11054;SDS011;5580;50.106;8.702;2023-11-19T10:05:50;8.33;;;4.17;;
11054;SDS011;5580;50.106;8.702;2023-11-19T10:08:15;6.87;;;3.83;;
11054;SDS011;5580;50.106;8.702;2023-11-19T10:10:42;9.97;;;4.27;;
11054;SDS011;5580;50.106;8.702;2023-11-19T10:13:08;5.63;;;3.63;;
11054;SDS011;5580;50.106;8.702;2023-11-19T10:15:37;9.67;;;3.90;;
11054;SDS011;5580;50.106;8.702;2023-11-19T10:18:03;7.47;;;3.73;;
11054;SDS011;5580;50.106;8.702;2023-11-19T10:20:37;5.57;;;3.77;;
11054;SDS011;5580;50.106;8.702;2023-11-19T10:23:06;7.53;;;3.90;;
11054;SDS011;5580;50.106;8.702;2023-11-19T10:25:32;10.10;;;3.90;;
11054;SDS011;5580;50.106;8.702;2023-11-19T10:27:58;8.63;;;4.17;;
11054;SDS011;5580;50.106;8.702;2023-11-19T10:30:25;7.93;;;3.97;;
11054;SDS011;5580;50.106;8.702;2023-11-19T10:38:21;9.13;;;3.83;;
11054;SDS011;5580;50.106;8.702;2023-11-19T10:40:48;6.03;;;3.27;;
11054;SDS011;5580;50.106;8.702;2023-11-19T10:43:15;11.53;;;4.17;;
11054;SDS011;5580;50.106;8.702;2023-11-19T10:45:42;9.30;;;3.93;;
11054;SDS011;5580;50.106;8.702;2023-11-19T10:48:08;9.27;;;3.40;;
11054;SDS011;5580;50.106;8.702;2023-11-19T10:50:35;10.07;;;3.70;;
11054;SDS011;5580;50.106;8.702;2023-11-19T10:53:02;10.00;;;3.73;;
11054;SDS011;5580;50.106;8.702;2023-11-19T10:55:33;11.90;;;3.83;;
11054;SDS011;5580;50.106;8.702;2023-11-19T10:58:06;9.90;;;4.00;;
11054;SDS011;5580;50.106;8.702;2023-11-19T11:00:47;7.93;;;3.50;;
11054;SDS011;5580;50.106;8.702;2023-11-19T11:03:17;11.87;;;4.03;;
11054;SDS011;5580;50.106;8.702;2023-11-19T11:05:47;10.00;;;3.70;;
11054;SDS011;5580;50.106;8.702;2023-11-19T11:08:13;11.83;;;3.83;;
11054;SDS011;5580;50.106;8.702;2023-11-19T11:10:42;10.17;;;3.53;;
11054;SDS011;5580;50.106;8.702;2023-11-19T11:13:09;10.03;;;3.83;;
11054;SDS011;5580;50.106;8.702;2023-11-19T11:15:37;13.50;;;4.30;;
11054;SDS011;5580;50.106;8.702;2023-11-19T11:18:03;13.40;;;3.70;;
11054;SDS011;5580;50.106;8.702;2023-11-19T11:20:33;10.97;;;3.60;;
11054;SDS011;5580;50.106;8.702;2023-11-19T11:28:26;11.47;;;3.60;;
11054;SDS011;5580;50.106;8.702;2023-11-19T11:36:43;14.03;;;5.10;;
11054;SDS011;5580;50.106;8.702;2023-11-19T11:39:18;12.73;;;4.13;;
11054;SDS011;5580;50.106;8.702;2023-11-19T11:41:47;13.57;;;3.90;;
11054;SDS011;5580;50.106;8.702;2023-11-19T11:50:18;13.40;;;4.00;;
11054;SDS011;5580;50.106;8.702;2023-11-19T11:56:08;13.90;;;4.10;;
11054;SDS011;5580;50.106;8.702;2023-11-19T11:58:17;17.57;;;4.50;;
11054;SDS011;5580;50.106;8.702;2023-11-19T12:00:47;11.20;;;3.90;;
11054;SDS011;5580;50.106;8.702;2023-11-19T12:03:13;11.73;;;4.17;;
11054;SDS011;5580;50.106;8.702;2023-11-19T12:05:44;14.33;;;4.30;;
11054;SDS011;5580;50.106;8.702;2023-11-19T12:08:11;12.93;;;4.00;;
11054;SDS011;5580;50.106;8.702;2023-11-19T12:13:12;14.87;;;4.20;;
11054;SDS011;5580;50.106;8.702;2023-11-19T12:16:06;15.47;;;4.00;;
11054;SDS011;5580;50.106;8.702;2023-11-19T12:18:32;11.97;;;4.20;;
11054;SDS011;5580;50.106;8.702;2023-11-19T12:21:00;12.93;;;3.87;;
11054;SDS011;5580;50.106;8.702;2023-11-19T12:23:27;13.13;;;4.17;;
11054;SDS011;5580;50.106;8.702;2023-11-19T12:25:54;9.93;;;3.60;;
11054;SDS011;5580;50.106;8.702;2023-11-19T12:28:20;12.73;;;3.63;;
11054;SDS011;5580;50.106;8.702;2023-11-19T12:30:46;13.33;;;4.30;;
11054;SDS011;5580;50.106;8.702;2023-11-19T12:33:13;12.17;;;3.80;;
11054;SDS011;5580;50.106;8.702;2023-11-19T12:35:39;11.57;;;4.23;;
11054;SDS011;5580;50.106;8.702;2023-11-19T12:38:17;13.87;;;3.80;;
11054;SDS011;5580;50.106;8.702;2023-11-19T12:40:47;11.00;;;3.87;;
11054;SDS011;5580;50.106;8.702;2023-11-19T12:43:31;11.30;;;3.87;;
11054;SDS011;5580;50.106;8.702;2023-11-19T12:45:57;8.37;;;3.47;;
11054;SDS011;5580;50.106;8.702;2023-11-19T12:48:22;7.90;;;3.37;;
11054;SDS011;5580;50.106;8.702;2023-11-19T12:50:52;10.40;;;3.63;;
11054;SDS011;5580;50.106;8.702;2023-11-19T12:53:25;11.10;;;3.77;;
11054;SDS011;5580;50.106;8.702;2023-11-19T12:55:52;11.63;;;4.03;;
11054;SDS011;5580;50.106;8.702;2023-11-19T12:58:28;9.37;;;3.60;;
11054;SDS011;5580;50.106;8.702;2023-11-19T13:01:00;11.97;;;3.97;;
11054;SDS011;5580;50.106;8.702;2023-11-19T13:03:35;10.53;;;3.77;;
11054;SDS011;5580;50.106;8.702;2023-11-19T13:06:06;10.03;;;3.90;;
11054;SDS011;5580;50.106;8.702;2023-11-19T13:08:51;10.33;;;3.43;;
11054;SDS011;5580;50.106;8.702;2023-11-19T13:11:33;10.80;;;3.40;;
11054;SDS011;5580;50.106;8.702;2023-11-19T13:14:01;8.67;;;3.20;;
11054;SDS011;5580;50.106;8.702;2023-11-19T13:16:33;11.87;;;3.57;;
11054;SDS011;5580;50.106;8.702;2023-11-19T13:19:01;11.33;;;3.93;;
11054;SDS011;5580;50.106;8.702;2023-11-19T13:21:26;10.10;;;3.40;;
11054;SDS011;5580;50.106;8.702;2023-11-19T13:23:52;11.03;;;3.40;;
11054;SDS011;5580;50.106;8.702;2023-11-19T13:26:17;9.33;;;3.50;;
11054;SDS011;5580;50.106;8.702;2023-11-19T13:28:43;12.70;;;3.80;;
11054;SDS011;5580;50.106;8.702;2023-11-19T13:31:09;10.80;;;3.53;;
11054;SDS011;5580;50.106;8.702;2023-11-19T13:33:35;11.77;;;3.40;;
11054;SDS011;5580;50.106;8.702;2023-11-19T13:36:01;9.97;;;3.10;;
11054;SDS011;5580;50.106;8.702;2023-11-19T13:38:34;9.90;;;3.63;;
11054;SDS011;5580;50.106;8.702;2023-11-19T13:41:03;13.03;;;3.80;;
11054;SDS011;5580;50.106;8.702;2023-11-19T13:43:33;7.10;;;3.10;;
11054;SDS011;5580;50.106;8.702;2023-11-19T13:45:59;10.33;;;3.27;;
11054;SDS011;5580;50.106;8.702;2023-11-19T13:48:25;11.37;;;3.70;;
11054;SDS011;5580;50.106;8.702;2023-11-19T13:50:52;13.60;;;3.73;;
11054;SDS011;5580;50.106;8.702;2023-11-19T13:53:17;12.80;;;3.67;;
11054;SDS011;5580;50.106;8.702;2023-11-19T13:55:43;14.57;;;4.00;;
11054;SDS011;5580;50.106;8.702;2023-11-19T13:58:09;10.87;;;3.67;;
11054;SDS011;5580;50.106;8.702;2023-11-19T14:00:35;13.27;;;3.87;;
11054;SDS011;5580;50.106;8.702;2023-11-19T14:03:01;13.83;;;3.80;;
11054;SDS011;5580;50.106;8.702;2023-11-19T14:05:27;10.13;;;3.40;;
11054;SDS011;5580;50.106;8.702;2023-11-19T14:07:53;10.53;;;3.67;;
11054;SDS011;5580;50.106;8.702;2023-11-19T14:10:19;9.27;;;3.77;;
11054;SDS011;5580;50.106;8.702;2023-11-19T14:12:45;12.07;;;3.50;;
11054;SDS011;5580;50.106;8.702;2023-11-19T14:15:10;10.87;;;3.17;;
11054;SDS011;5580;50.106;8.702;2023-11-19T14:17:39;14.13;;;3.57;;
11054;SDS011;5580;50.106;8.702;2023-11-19T14:20:05;9.97;;;3.30;;
11054;SDS011;5580;50.106;8.702;2023-11-19T14:22:42;9.50;;;3.57;;
11054;SDS011;5580;50.106;8.702;2023-11-19T14:25:09;10.73;;;3.70;;
11054;SDS011;5580;50.106;8.702;2023-11-19T14:27:42;13.27;;;4.03;;
11054;SDS011;5580;50.106;8.702;2023-11-19T14:30:09;13.33;;;3.70;;
11054;SDS011;5580;50.106;8.702;2023-11-19T14:32:39;10.90;;;3.63;;
11054;SDS011;5580;50.106;8.702;2023-11-19T14:35:07;9.00;;;3.30;;
11054;SDS011;5580;50.106;8.702;2023-11-19T14:37:33;11.73;;;3.73;;
11054;SDS011;5580;50.106;8.702;2023-11-19T14:39:59;12.20;;;3.17;;
11054;SDS011;5580;50.106;8.702;2023-11-19T14:42:25;14.20;;;3.87;;
11054;SDS011;5580;50.106;8.702;2023-11-19T14:44:51;10.30;;;3.70;;
11054;SDS011;5580;50.106;8.702;2023-11-19T14:47:20;10.83;;;3.40;;
11054;SDS011;5580;50.106;8.702;2023-11-19T14:49:46;12.00;;;3.57;;
11054;SDS011;5580;50.106;8.702;2023-11-19T14:52:12;12.87;;;3.40;;
11054;SDS011;5580;50.106;8.702;2023-11-19T14:54:38;10.20;;;3.90;;
11054;SDS011;5580;50.106;8.702;2023-11-19T14:57:04;13.10;;;3.57;;
11054;SDS011;5580;50.106;8.702;2023-11-19T14:59:31;13.10;;;3.50;;
11054;SDS011;5580;50.106;8.702;2023-11-19T15:01:58;11.67;;;3.70;;
11054;SDS011;5580;50.106;8.702;2023-11-19T15:04:25;14.10;;;3.63;;
11054;SDS011;5580;50.106;8.702;2023-11-19T15:06:51;9.90;;;3.73;;
11054;SDS011;5580;50.106;8.702;2023-11-19T15:09:17;12.17;;;3.93;;
11054;SDS011;5580;50.106;8.702;2023-11-19T15:11:45;13.27;;;3.77;;
11054;SDS011;5580;50.106;8.702;2023-11-19T15:14:15;11.87;;;4.07;;
11054;SDS011;5580;50.106;8.702;2023-11-19T15:16:43;12.93;;;3.73;;
11054;SDS011;5580;50.106;8.702;2023-11-19T15:19:13;13.33;;;4.17;;
11054;SDS011;5580;50.106;8.702;2023-11-19T15:21:39;14.80;;;3.87;;